YLCI weather

CLOSED Lancelin Airport
Lancelin, Western Australia, Australia

Public forecast

Using degrees Celsius for public forecast. Weather courtesy of forecast.io.

METAR (pilot weather report)

Closest report is RAAF Base Pearce, 52.4 nm (97.1 km) SE. Retrieved 2019/04/24 10:00 UTC (9 minutes ago):

YPEA 241000Z AUTO 15004KT 9999 // NCD 25/04 Q1024

TAF (pilot weather forecast)

Closest forecast is RAAF Base Pearce, 52.4 nm (97.1 km) SE. Retrieved 2019/04/24 06:00 UTC (4 hours ago):

TAF YPEA 240516Z 2406/2424 11010KT CAVOK FM241600 09008KT CAVOK